Flight Track Log - Related Links

Times and Time Zones

All times are in EDT time to prevent confusion due to time zone crossing. See the DAL695 flight status page for this flight to view local times or setup timezone preferences in your user account.

Time Position Orientation Groundspeed Altitude Reporting Facility
EDT Latitude Longitude Course Direction KTS MPH feet Rate Location/Type
Sat 02:55:43 PM 28.4000 -81.3000 North 171 197 700  Level Orlando TRACON
Sat 02:56:07 PM 28.3833 -81.3000 180° South 167 192 1,500 1,538 Climbing Orlando TRACON
Sat 02:57:01 PM 28.3333 -81.2833 164° South 241 277 2,700 2,150 Climbing Orlando TRACON
Sat 02:58:00 PM 28.7785 -81.3500 North  Level FlightAware Approximate
Sat 02:58:07 PM 28.3167 -81.2000 103° East 239 275 5,800  Level Orlando TRACON
Sat 02:59:00 PM 28.9021 -81.3569 355° North  Level FlightAware Approximate
Sat 03:00:00 PM 29.0252 -81.3717 350° North  Level FlightAware Approximate
Sat 03:00:33 PM 28.4678 -81.1403 19° North 248 285 11,700  Level Jacksonville Center
Sat 03:01:00 PM 29.1482 -81.3833 North  Level FlightAware Approximate
Sat 03:01:33 PM 28.5408 -81.1508 353° North 253 291 13,400  Level Jacksonville Center
Sat 03:02:33 PM 28.6289 -81.1872 340° North 289 333 14,300 1,050 Climbing Jacksonville Center
Sat 03:03:33 PM 28.7194 -81.2472 330° Northwest 359 413 15,500 1,400 Climbing Jacksonville Center
Sat 03:04:33 PM 28.8183 -81.3050 333° Northwest 373 429 17,100 1,550 Climbing Jacksonville Center
Sat 03:05:33 PM 28.9314 -81.3411 344° North 393 452 18,600 1,500 Climbing Jacksonville Center
Sat 03:06:33 PM 29.0489 -81.3747 346° North 427 491 20,100 1,400 Climbing Jacksonville Center
Sat 03:07:33 PM 29.1700 -81.3944 352° North 435 501 21,400 1,350 Climbing Jacksonville Center
Sat 03:08:33 PM 29.2956 -81.4139 352° North 454 522 22,800 1,300 Climbing Jacksonville Center
Sat 03:09:33 PM 29.4106 -81.4217 357° North 461 531 24,000 1,150 Climbing Jacksonville Center
Sat 03:10:33 PM 29.5422 -81.4364 354° North 466 536 25,100 1,400 Climbing Jacksonville Center
Sat 03:11:33 PM 29.6717 -81.4489 355° North 466 536 26,800 1,000 Climbing Jacksonville Center
Sat 03:12:33 PM 29.8056 -81.4589 356° North 466 536 27,100 450 Climbing Jacksonville Center
Sat 03:13:33 PM 29.9414 -81.4736 355° North 473 544 27,700 600 Climbing Jacksonville Center
Sat 03:14:33 PM 30.0856 -81.4858 356° North 494 568 28,300 1,000 Climbing Jacksonville Center
Sat 03:15:33 PM 30.2233 -81.4983 356° North 501 577 29,700 1,200 Climbing Jacksonville Center
Sat 03:16:33 PM 30.3800 -81.5081 357° North 501 577 30,700 650 Climbing Jacksonville Center
Sat 03:17:33 PM 30.5197 -81.4939 North 496 571 31,000 150 Climbing Jacksonville Center
Sat 03:18:33 PM 30.6575 -81.4847 North 496 571 31,000 50 Level Jacksonville Center
Sat 03:19:33 PM 30.7972 -81.4731 North 496 571 31,100 400 Climbing Jacksonville Center
Sat 03:20:33 PM 30.9325 -81.4250 17° North 496 571 31,800 950 Climbing Jacksonville Center
Sat 03:21:33 PM 31.0525 -81.3431 30° Northeast 488 562 33,000 900 Climbing Jacksonville Center
Sat 03:22:33 PM 31.1747 -81.2583 31° Northeast 500 575 33,600 550 Climbing Jacksonville Center
Sat 03:23:33 PM 31.2947 -81.1761 30° Northeast 506 582 34,100 550 Climbing Jacksonville Center
Sat 03:24:33 PM 31.4167 -81.0864 32° Northeast 511 588 34,700 550 Climbing Jacksonville Center
Sat 03:25:33 PM 31.5283 -81.0086 31° Northeast 513 590 35,200 545 Climbing Jacksonville Center
Sat 03:26:34 PM 31.6647 -80.9131 31° Northeast 513 590 35,800 550 Climbing Jacksonville Center
Sat 03:27:33 PM 31.7906 -80.8247 31° Northeast 513 590 36,300 555 Climbing Jacksonville Center
Sat 03:28:33 PM 31.9019 -80.7464 31° Northeast 513 590 36,900 350 Climbing Jacksonville Center
Sat 03:29:33 PM 32.0381 -80.6525 30° Northeast 513 590 37,000 50 Climbing Jacksonville Center
Sat 03:30:34 PM 32.1597 -80.5636 32° Northeast 513 590 37,000  Level Jacksonville Center
Sat 03:31:33 PM 32.2856 -80.4744 31° Northeast 513 590 37,000  Level Jacksonville Center
Sat 03:32:33 PM 32.4069 -80.3875 31° Northeast 507 583 37,000  Level Jacksonville Center
Sat 03:33:33 PM 32.5303 -80.3006 31° Northeast 507 583 37,000 -50 Level Jacksonville Center
Sat 03:34:33 PM 32.6539 -80.2106 32° Northeast 507 583 36,900 -50 Descending Jacksonville Center
Sat 03:35:34 PM 32.7769 -80.1203 32° Northeast 507 583 36,900 50 Level Jacksonville Center
Sat 03:36:34 PM 32.9003 -80.0275 32° Northeast 507 583 37,000 50 Climbing Jacksonville Center
Sat 03:37:34 PM 33.0167 -79.9175 38° Northeast 522 601 37,000  Level Jacksonville Center
Sat 03:38:33 PM 33.1289 -79.8094 39° Northeast 522 601 37,000  Level Jacksonville Center
Sat 03:39:33 PM 33.2328 -79.7089 39° Northeast 531 611 37,000  Level Jacksonville Center
Sat 03:40:34 PM 33.3428 -79.6031 39° Northeast 520 598 37,000  Level Jacksonville Center
Sat 03:41:33 PM 33.4528 -79.4969 39° Northeast 510 587 37,000 -50 Level Jacksonville Center
Sat 03:42:33 PM 33.5625 -79.3881 40° Northeast 510 587 36,900 -50 Descending Jacksonville Center
Sat 03:43:33 PM 33.6700 -79.2792 40° Northeast 510 587 36,900  Level Jacksonville Center
Sat 03:44:34 PM 33.7733 -79.1775 39° Northeast 500 575 36,900  Level Jacksonville Center
Sat 03:45:34 PM 33.8828 -79.0703 39° Northeast 500 575 36,900  Level Jacksonville Center
Sat 03:47:35 PM 34.1108 -78.8450 39° Northeast 523 602 36,900 33 Level Washington Center
Sat 03:48:35 PM 34.2222 -78.7389 38° Northeast 513 590 37,000 50 Climbing Washington Center
Sat 03:49:35 PM 34.3336 -78.6275 40° Northeast 513 590 37,000 -50 Level Washington Center
Sat 03:50:34 PM 34.4428 -78.5158 40° Northeast 513 590 36,900  Descending Washington Center
Sat 03:51:34 PM 34.5519 -78.3986 41° Northeast 513 590 37,000 50 Climbing Washington Center
Sat 03:52:34 PM 34.6650 -78.2914 38° Northeast 518 596 37,000  Level Washington Center
Sat 03:53:35 PM 34.7761 -78.1786 40° Northeast 513 590 37,000  Level Washington Center
Sat 03:54:34 PM 34.8742 -78.0731 41° Northeast 518 596 37,000  Level Washington Center
Sat 03:55:34 PM 34.9831 -77.9597 40° Northeast 518 596 37,000  Level Washington Center
Sat 03:56:35 PM 35.0897 -77.8386 43° Northeast 518 596 37,000  Level Washington Center
Sat 03:57:33 PM 35.1961 -77.7219 42° Northeast 518 596 37,000  Level Washington Center
Sat 03:58:34 PM 35.3025 -77.6078 41° Northeast 507 583 37,000  Level Washington Center
Sat 03:59:34 PM 35.4106 -77.4958 40° Northeast 502 578 37,000  Level Washington Center
Sat 04:00:32 PM 35.5331 -77.4042 31° Northeast 507 583 37,000  Level Washington Center
Sat 04:01:34 PM 35.6553 -77.3175 30° Northeast 507 583 37,000  Level Washington Center
Sat 04:02:35 PM 35.7797 -77.2256 31° Northeast 507 583 37,000  Level Washington Center
Sat 04:03:35 PM 35.9019 -77.1331 32° Northeast 512 589 37,000  Level Washington Center
Sat 04:04:32 PM 36.0328 -77.0331 32° Northeast 512 589 37,000  Level Washington Center
Sat 04:05:33 PM 36.1547 -76.9400 32° Northeast 512 589 37,000  Level Washington Center
Sat 04:06:33 PM 36.2789 -76.8494 30° Northeast 512 589 37,000  Level Washington Center
Sat 04:07:34 PM 36.4028 -76.7533 32° Northeast 512 589 37,000  Level Washington Center
Sat 04:08:34 PM 36.5269 -76.6619 31° Northeast 517 595 37,000 -50 Level Washington Center
Sat 04:09:35 PM 36.6464 -76.5706 32° Northeast 517 595 36,900  Descending Washington Center
Sat 04:10:35 PM 36.7683 -76.4736 32° Northeast 517 595 37,000 51 Climbing Washington Center
Sat 04:11:33 PM 36.8919 -76.3789 31° Northeast 522 601 37,000  Level Washington Center
Sat 04:12:33 PM 37.0031 -76.2914 32° Northeast 522 601 37,000  Level Washington Center
Sat 04:13:34 PM 37.1289 -76.1936 32° Northeast 522 601 37,000  Level Washington Center
Sat 04:14:35 PM 37.2567 -76.0747 37° Northeast 522 601 37,000  Level Washington Center
Sat 04:15:35 PM 37.3197 -75.9289 61° Northeast 511 588 37,000  Level Washington Center
Sat 04:16:33 PM 37.3742 -75.7539 69° East 516 594 37,000 -50 Level Washington Center
Sat 04:17:34 PM 37.4536 -75.5969 57° Northeast 521 600 36,900 -50 Descending Washington Center
Sat 04:18:34 PM 37.5850 -75.5317 21° North 490 564 36,900 -347 Level Washington Center
Sat 04:19:35 PM 37.7206 -75.5106 North 473 544 36,200 -843 Descending Washington Center
Sat 04:20:35 PM 37.8622 -75.4972 North 480 552 35,200 -600 Descending Washington Center
Sat 04:21:35 PM 38.0061 -75.4706 North 500 575 35,000 -102 Descending Washington Center
Sat 04:22:33 PM 38.1481 -75.4147 17° North 519 597 35,000 -51 Level Washington Center
Sat 04:23:33 PM 38.2856 -75.3272 27° Northeast 527 606 34,900 -50 Descending Washington Center
Sat 04:24:34 PM 38.4167 -75.2367 28° Northeast 532 612 34,900  Level Washington Center
Sat 04:25:34 PM 38.5475 -75.1536 26° Northeast 532 612 34,900  Level Washington Center
Sat 04:26:35 PM 38.6828 -75.0703 26° Northeast 527 606 34,900 50 Level Washington Center
Sat 04:27:35 PM 38.8158 -74.9817 27° Northeast 527 606 35,000 -763 Climbing Washington Center
Sat 04:28:33 PM 38.9550 -74.8922 27° Northeast 527 606 33,400 -2,400 Descending Washington Center
Sat 04:29:35 PM 39.0878 -74.8028 28° Northeast 532 612 30,200 -2,898 Descending Washington Center
Sat 04:31:29 PM 39.3253 -74.5550 39° Northeast 551 634 24,900 -2,621 Descending New York Center
Sat 04:32:29 PM 39.4333 -74.4372 40° Northeast 526 605 22,600 -2,341 Descending New York Center
Sat 04:33:32 PM 39.5347 -74.3239 41° Northeast 496 571 20,100 -2,182 Descending New York Center
Sat 04:34:30 PM 39.6253 -74.2261 40° Northeast 475 547 18,200 -1,424 Descending New York Center
Sat 04:35:30 PM 39.7308 -74.1097 40° Northeast 456 525 17,300 -1,800 Descending New York Center
Sat 04:36:30 PM 39.8233 -74.0089 40° Northeast 436 502 14,600 -2,579 Descending New York Center
Sat 04:37:31 PM 39.9211 -73.9322 31° Northeast 420 483 12,100 -1,736 Descending New York Center
Sat 04:38:31 PM 40.0061 -73.8736 28° Northeast 395 455 11,100 -712 Descending New York Center
Sat 04:39:29 PM 40.0911 -73.8097 30° Northeast 352 405 10,700 -837 Descending New York Center
Sat 04:39:57 PM 40.1333 -73.7667 38° Northeast 337 388 9,900 -1,432 Descending New York TRACON
Sat 04:40:57 PM 40.2167 -73.7000 31° Northeast 311 358 8,600 -1,400 Descending New York TRACON
Sat 04:41:57 PM 40.2833 -73.6500 30° Northeast 298 343 7,100 -800 Descending New York TRACON
Sat 04:42:57 PM 40.3500 -73.6833 339° North 281 323 7,000 -50 Descending New York TRACON
Sat 04:43:57 PM 40.4167 -73.6333 30° Northeast 308 354 7,000  Level New York TRACON
Sat 04:45:03 PM 40.4833 -73.5500 44° Northeast 306 352 7,000 -286 Level New York TRACON
Sat 04:46:03 PM 40.5500 -73.5000 30° Northeast 297 342 6,400 -1,000 Descending New York TRACON
Sat 04:47:03 PM 40.6333 -73.4667 17° North 277 319 5,000 -1,150 Descending New York TRACON
Sat 04:48:03 PM 40.7000 -73.4500 11° North 237 273 4,100 -632 Descending New York TRACON
Sat 04:48:57 PM 40.7333 -73.4833 323° Northwest 217 250 3,800 -579 Descending New York TRACON
Sat 04:49:57 PM 40.7833 -73.5500 315° West 216 249 3,000 -800 Descending New York TRACON

Login

Don't have an account? Register now (free) for customized features, flight alerts, and more!